Bert Mooney Airport Butte US
ICAO: KBTM
IATA: BTM
Category: Medium
Scheduled Services: Yes

Elevation: 5550 ft
TransAlt. 18000 ft.

Airport Communications:
ASOS:135.175
SALT LAKE CITY CNTR:132.4
GREAT FALLS RDO:122.2
CTAF/UNICOM:123

KBTM Zoom In..

If you have problems with the map follow the link
https://www.worldairports.se/pages/airport.php?
ICAO=KBTM

Runways:

(A) RW 12 length 5100 ft width 75 ft
---- / hdg 113

(B) RW 15 length 9001 ft width 150 ft
ILS 110.90 / hdg 151

(C) RW 30 length 5100 ft width 75 ft
---- / hdg 293

(D) RW 33 length 9001 ft width 150 ft
---- / hdg 331

Location; KBTM
Day. 26 / Time. 00.53 Zulu
* Altimeter: 30.01
* Temperature: 00° c. 32°f.
* Wind from: 330° Speed 03 kn.
Dewpoint: -03° c.
Visibility: 10 Statute Miles.
Clouds: Overcast 7000 ft.

KBTM 260053Z AUTO 33003KT 10SM OVC070 00/M03 A3001 RMK AO2 SLP194 T00001033


Wind From 330°
Speed 03 kn.

 
 
jpsmedia worldairports.se 2020   terms of use